createdAt,value
2022-12-23T00:01:06.061Z,97583.72
2022-12-23T00:03:33.139Z,97580.38
2022-12-23T00:06:00.824Z,97566.25
2022-12-23T00:08:27.681Z,97576.44
2022-12-23T00:10:56.789Z,97567.53
2022-12-23T00:13:42.125Z,97575.16
2022-12-23T00:16:13.730Z,97565.94
2022-12-23T00:18:40.871Z,97576.28
2022-12-23T00:21:13.771Z,97586.47
2022-12-23T00:23:42.947Z,97579.34
2022-12-23T00:26:24.007Z,97569.47
2022-12-23T00:28:50.900Z,97566.16
2022-12-23T00:31:19.396Z,97563.94
2022-12-23T00:33:48.070Z,97580.66
2022-12-23T00:36:18.261Z,97563.63
2022-12-23T00:39:03.604Z,97564.09
2022-12-23T00:41:48.885Z,97560.13
2022-12-23T00:44:15.583Z,97569.22
2022-12-23T00:46:42.034Z,97556.97
2022-12-23T00:49:29.823Z,97574.19
2022-12-23T00:51:56.182Z,97575.78
2022-12-23T00:54:22.728Z,97572.75
2022-12-23T00:56:49.092Z,97582.97
2022-12-23T00:59:15.592Z,97583.75
2022-12-23T01:02:00.764Z,97577.53
2022-12-23T01:04:45.887Z,97586.16
2022-12-23T01:07:12.368Z,97590.47
2022-12-23T01:09:38.905Z,97594.97
2022-12-23T01:12:05.568Z,97591.94
2022-12-23T01:14:32.305Z,97602.13
2022-12-23T01:16:58.735Z,97611.13
2022-12-23T01:19:25.264Z,97612.53
2022-12-23T01:21:51.685Z,97605.53
2022-12-23T01:24:18.095Z,97613.19
2022-12-23T01:26:44.511Z,97617.47
2022-12-23T01:29:11.489Z,97604.59
2022-12-23T01:31:37.988Z,97609.72
2022-12-23T01:34:04.434Z,97626.44
2022-12-23T01:36:30.938Z,97629.66
2022-12-23T01:38:57.392Z,97627.41
2022-12-23T01:41:45.590Z,97625.69
2022-12-23T01:44:45.704Z,97628.25
2022-12-23T01:47:17.185Z,97636.91
2022-12-23T01:49:43.820Z,97638.97
2022-12-23T01:52:11.809Z,97633.56
2022-12-23T01:54:39.234Z,97630.84
2022-12-23T01:57:05.835Z,97631.31
2022-12-23T01:59:50.877Z,97638.03
2022-12-23T02:02:35.920Z,97642.50
2022-12-23T02:05:02.787Z,97646.03
2022-12-23T02:07:47.877Z,97645.72
2022-12-23T02:10:14.303Z,97646.53
2022-12-23T02:13:16.083Z,97668.34
2022-12-23T02:16:13.758Z,97655.13
2022-12-23T02:18:56.574Z,97670.59
2022-12-23T02:22:00.420Z,97672.19
2022-12-23T02:24:38.977Z,97672.97
2022-12-23T02:27:10.223Z,97678.09
2022-12-23T02:30:11.765Z,97686.53
2022-12-23T02:33:02.919Z,97684.00
2022-12-23T02:35:40.650Z,97696.44
2022-12-23T02:38:15.733Z,97684.16
2022-12-23T02:41:27.418Z,97693.88
2022-12-23T02:44:11.901Z,97704.44
2022-12-23T02:46:45.645Z,97698.50
2022-12-23T02:49:18.537Z,97704.72
2022-12-23T02:51:50.264Z,97708.25
2022-12-23T02:54:24.802Z,97707.44
2022-12-23T02:56:53.943Z,97718.25
2022-12-23T02:59:28.036Z,97716.38
2022-12-23T03:01:55.355Z,97719.69
2022-12-23T03:04:21.873Z,97725.13
2022-12-23T03:07:06.960Z,97728.16
2022-12-23T03:09:49.664Z,97722.53
2022-12-23T03:12:30.116Z,97717.75
2022-12-23T03:15:40.825Z,97730.81
2022-12-23T03:18:31.356Z,97744.06
2022-12-23T03:21:12.141Z,97744.84
2022-12-23T03:24:03.740Z,97745.47
2022-12-23T03:30:47.824Z,97755.66
2022-12-23T03:33:24.878Z,97761.34
2022-12-23T03:36:17.211Z,97759.75
2022-12-23T03:38:46.749Z,97762.78
2022-12-23T03:41:35.002Z,97762.78
2022-12-23T03:44:12.830Z,97763.91
2022-12-23T03:47:25.664Z,97769.09
2022-12-23T03:50:04.202Z,97775.63
2022-12-23T03:52:48.636Z,97780.72
2022-12-23T03:55:36.416Z,97766.69
2022-12-23T03:58:40.109Z,97773.47
2022-12-23T04:01:19.384Z,97765.81
2022-12-23T04:04:14.657Z,97773.13
2022-12-23T04:06:55.255Z,97771.22
2022-12-23T04:09:27.456Z,97771.22
2022-12-23T04:12:00.678Z,97778.34
2022-12-23T04:14:37.476Z,97775.75
2022-12-23T04:17:17.948Z,97777.81
2022-12-23T04:19:51.738Z,97785.13
2022-12-23T04:22:22.654Z,97787.31
2022-12-23T04:25:08.491Z,97789.06
2022-12-23T04:27:44.144Z,97791.56
2022-12-23T04:30:18.647Z,97797.00
2022-12-23T04:33:05.697Z,97799.38
2022-12-23T04:35:54.519Z,97800.69
2022-12-23T04:38:33.676Z,97794.47
2022-12-23T04:41:30.075Z,97791.25
2022-12-23T04:44:00.237Z,97793.47
2022-12-23T04:46:38.666Z,97798.91
2022-12-23T04:49:22.383Z,97807.00
2022-12-23T04:52:02.182Z,97813.44
2022-12-23T04:54:45.537Z,97813.91
2022-12-23T05:00:47.175Z,97821.50
2022-12-23T05:03:19.343Z,97831.13
2022-12-23T05:06:21.207Z,97831.78
2022-12-23T05:08:55.137Z,97839.56
2022-12-23T05:11:41.882Z,97836.25
2022-12-23T05:14:18.733Z,97831.84
2022-12-23T05:20:00.392Z,97840.97
2022-12-23T05:25:40.618Z,97846.22
2022-12-23T05:28:49.934Z,97848.03
2022-12-23T05:31:26.063Z,97842.28
2022-12-23T05:34:05.954Z,97845.19
2022-12-23T05:36:43.770Z,97852.19
2022-12-23T05:40:21.492Z,97839.75
2022-12-23T05:46:55.144Z,97837.19
2022-12-23T05:50:04.539Z,97856.63
2022-12-23T05:56:10.500Z,97857.50
2022-12-23T05:58:43.841Z,97866.44
2022-12-23T06:02:03.568Z,97867.59
2022-12-23T06:04:36.618Z,97852.44
2022-12-23T06:07:11.121Z,97858.34
2022-12-23T06:09:52.266Z,97861.22
2022-12-23T06:12:40.814Z,97859.81
2022-12-23T06:15:16.497Z,97853.06
2022-12-23T06:18:12.793Z,97860.25
2022-12-23T06:21:43.365Z,97858.94
2022-12-23T06:24:43.245Z,97859.44
2022-12-23T06:27:28.690Z,97859.44
2022-12-23T06:30:48.436Z,97867.72
2022-12-23T06:33:21.778Z,97866.88
2022-12-23T06:45:19.164Z,97868.78
2022-12-23T06:47:45.718Z,97876.63
2022-12-23T06:50:12.200Z,97880.94
2022-12-23T06:52:38.605Z,97876.63
2022-12-23T06:55:05.547Z,97879.34
2022-12-23T06:57:32.007Z,97880.44
2022-12-23T06:59:58.430Z,97885.38
2022-12-23T07:02:24.946Z,97894.13
2022-12-23T07:04:51.496Z,97892.34
2022-12-23T07:07:18.034Z,97900.78
2022-12-23T07:09:44.474Z,97893.75
2022-12-23T07:12:11.297Z,97900.28
2022-12-23T07:14:37.709Z,97898.97
2022-12-23T07:17:04.219Z,97900.41
2022-12-23T07:19:30.725Z,97898.28
2022-12-23T07:21:57.118Z,97903.22
2022-12-23T07:24:23.508Z,97904.94
2022-12-23T07:26:50.900Z,97897.44
2022-12-23T07:29:17.383Z,97899.66
2022-12-23T07:31:43.880Z,97896.94
2022-12-23T07:34:10.362Z,97899.09
2022-12-23T07:36:36.842Z,97904.53
2022-12-23T07:39:03.524Z,97902.13
2022-12-23T07:41:29.963Z,97902.94
2022-12-23T07:43:56.352Z,97901.66
2022-12-23T07:46:22.787Z,97906.25
2022-12-23T07:48:49.191Z,97898.94
2022-12-23T07:51:15.831Z,97897.81
2022-12-23T07:53:42.246Z,97906.19
2022-12-23T07:56:08.791Z,97897.44
2022-12-23T07:58:35.168Z,97892.00
2022-12-23T08:01:03.718Z,97900.63
2022-12-23T08:03:30.502Z,97906.03
2022-12-23T08:06:15.204Z,97916.88
2022-12-23T08:08:44.024Z,97917.69
2022-12-23T08:11:11.904Z,97916.28
2022-12-23T08:13:40.481Z,97930.31
2022-12-23T08:16:07.721Z,97931.13
2022-12-23T08:18:37.112Z,97930.22
2022-12-23T08:21:04.812Z,97939.94
2022-12-23T08:23:32.093Z,97937.22
2022-12-23T08:26:07.859Z,97936.91
2022-12-23T08:28:35.871Z,97942.03
2022-12-23T08:31:07.296Z,97933.59
2022-12-23T08:33:36.330Z,97938.72
2022-12-23T08:36:03.246Z,97934.88
2022-12-23T08:38:29.764Z,97926.44
2022-12-23T08:40:56.455Z,97931.28
2022-12-23T08:43:22.934Z,97933.84
2022-12-23T08:45:49.627Z,97925.69
2022-12-23T08:48:16.262Z,97915.66
2022-12-23T08:50:44.670Z,97906.94
2022-12-23T08:53:12.036Z,97904.69
2022-12-23T08:55:44.339Z,97919.25
2022-12-23T08:58:11.888Z,97919.75
2022-12-23T09:00:38.949Z,97908.91
2022-12-23T09:03:05.724Z,97918.81
2022-12-23T09:05:33.047Z,97917.38
2022-12-23T09:07:59.977Z,97920.59
2022-12-23T09:10:26.518Z,97917.06
2022-12-23T09:12:52.934Z,97932.53
2022-12-23T09:15:19.568Z,97932.53
2022-12-23T09:17:46.037Z,97927.13
2022-12-23T09:20:12.785Z,97940.19
2022-12-23T09:22:39.868Z,97936.06
2022-12-23T09:25:06.377Z,97931.75
2022-12-23T09:27:32.754Z,97933.34
2022-12-23T09:29:59.202Z,97929.53
2022-12-23T09:32:25.629Z,97921.09
2022-12-23T09:34:52.071Z,97919.19
2022-12-23T09:37:18.658Z,97917.28
2022-12-23T09:39:45.167Z,97909.13
2022-12-23T09:42:25.275Z,97915.03
2022-12-23T09:45:20.975Z,97901.16
2022-12-23T09:47:48.253Z,97898.16
2022-12-23T09:50:23.548Z,97885.88
2022-12-23T09:53:08.474Z,97878.25
2022-12-23T09:55:54.057Z,97887.69
2022-12-23T09:58:25.858Z,97890.88
2022-12-23T10:01:05.310Z,97887.06
2022-12-23T10:03:57.956Z,97880.50
2022-12-23T10:06:28.645Z,97886.44
2022-12-23T10:09:02.448Z,97879.91
2022-12-23T10:11:33.628Z,97876.06
2022-12-23T10:14:14.677Z,97870.66
2022-12-23T10:16:47.100Z,97873.38
2022-12-23T10:19:21.054Z,97874.16
2022-12-23T10:21:52.389Z,97865.22
2022-12-23T10:24:21.413Z,97869.53
2022-12-23T10:27:01.259Z,97869.53
2022-12-23T10:29:32.405Z,97869.53
2022-12-23T10:32:17.120Z,97860.75
2022-12-23T10:35:41.080Z,97860.75
2022-12-23T10:38:40.731Z,97863.19
2022-12-23T10:41:30.444Z,97864.47
2022-12-23T10:44:07.062Z,97849.78
2022-12-23T10:46:52.728Z,97847.53
2022-12-23T10:49:52.960Z,97852.97
2022-12-23T10:52:27.407Z,97854.59
2022-12-23T10:54:53.864Z,97838.31
2022-12-23T10:57:20.785Z,97826.34
2022-12-23T10:59:47.368Z,97819.81
2022-12-23T11:02:14.179Z,97820.59
2022-12-23T11:04:45.339Z,97820.59
2022-12-23T11:07:44.003Z,97804.66
2022-12-23T11:10:32.975Z,97813.09
2022-12-23T11:13:00.649Z,97811.19
2022-12-23T11:15:28.903Z,97804.13
2022-12-23T11:18:16.381Z,97803.06
2022-12-23T11:20:45.713Z,97801.44
2022-12-23T11:23:35.009Z,97803.06
2022-12-23T11:26:06.156Z,97797.63
2022-12-23T11:28:35.436Z,97796.00
2022-12-23T11:31:14.393Z,97782.44
2022-12-23T11:33:59.766Z,97778.63
2022-12-23T11:36:28.810Z,97777.53
2022-12-23T11:39:10.374Z,97768.25
2022-12-23T11:41:40.430Z,97753.25
2022-12-23T11:44:24.124Z,97756.16
2022-12-23T11:46:50.723Z,97748.47
2022-12-23T11:49:22.635Z,97748.97
2022-12-23T11:52:01.798Z,97749.94
2022-12-23T11:54:29.266Z,97749.94
2022-12-23T11:56:56.879Z,97742.91
2022-12-23T11:59:28.683Z,97740.19
2022-12-23T12:01:58.816Z,97735.25
2022-12-23T12:04:26.770Z,97728.69
2022-12-23T12:06:56.674Z,97729.50
2022-12-23T12:09:24.726Z,97722.94
2022-12-23T12:12:07.133Z,97723.13
2022-12-23T12:14:42.921Z,97712.75
2022-12-23T12:17:32.273Z,97709.41
2022-12-23T12:20:11.992Z,97705.56
2022-12-23T12:22:44.347Z,97693.94
2022-12-23T12:25:19.332Z,97691.53
2022-12-23T12:27:54.377Z,97681.47
2022-12-23T12:30:21.569Z,97676.84
2022-12-23T12:32:48.004Z,97673.00
2022-12-23T12:35:37.656Z,97674.13
2022-12-23T12:38:17.902Z,97667.59
2022-12-23T12:40:51.081Z,97661.34
2022-12-23T12:43:40.156Z,97668.38
2022-12-23T12:46:06.594Z,97671.41
2022-12-23T12:48:47.952Z,97663.28
2022-12-23T12:51:26.006Z,97646.66
2022-12-23T12:54:15.164Z,97656.06
2022-12-23T12:56:48.649Z,97647.94
2022-12-23T12:59:19.740Z,97650.66
2022-12-23T13:02:13.381Z,97645.88
2022-12-23T13:05:00.878Z,97645.41
2022-12-23T13:07:52.527Z,97634.53
2022-12-23T13:10:34.690Z,97629.13
2022-12-23T13:13:07.047Z,97636.13
2022-12-23T13:15:47.225Z,97629.59
2022-12-23T13:18:27.725Z,97614.09
2022-12-23T13:21:03.181Z,97614.25
2022-12-23T13:23:46.654Z,97613.16
2022-12-23T13:26:23.511Z,97610.44
2022-12-23T13:29:21.490Z,97601.16
2022-12-23T13:32:02.801Z,97608.19
2022-12-23T13:34:53.156Z,97606.59
2022-12-23T13:37:36.094Z,97601.16
2022-12-23T13:40:26.267Z,97608.19
2022-12-23T13:42:56.791Z,97609.78
2022-12-23T13:45:27.941Z,97620.31
2022-12-23T13:48:15.155Z,97616.78
2022-12-23T13:50:57.083Z,97608.19
2022-12-23T13:53:47.385Z,97601.63
2022-12-23T13:56:24.056Z,97598.75
2022-12-23T13:58:51.664Z,97592.53
2022-12-23T14:01:18.037Z,97583.59
2022-12-23T14:03:44.790Z,97587.09
2022-12-23T14:06:23.567Z,97583.72
2022-12-23T14:08:51.217Z,97589.31
2022-12-23T14:11:31.016Z,97584.69
2022-12-23T14:14:02.186Z,97581.19
2022-12-23T14:17:16.233Z,97589.31
2022-12-23T14:20:23.598Z,97578.47
2022-12-23T14:23:07.093Z,97579.09
2022-12-23T14:25:59.608Z,97581.16
2022-12-23T14:28:50.448Z,97591.22
2022-12-23T14:31:53.854Z,97576.53
2022-12-23T14:34:20.272Z,97572.69
2022-12-23T14:37:20.588Z,97571.88
2022-12-23T14:39:47.828Z,97566.31
2022-12-23T14:42:34.157Z,97580.19
2022-12-23T14:45:35.371Z,97570.97
2022-12-23T14:48:23.668Z,97565.81
2022-12-23T14:51:00.735Z,97557.69
2022-12-23T14:53:32.261Z,97563.59
2022-12-23T14:56:32.559Z,97566.78
2022-12-23T14:59:23.686Z,97574.47
2022-12-23T15:01:53.853Z,97579.56
2022-12-23T15:04:34.033Z,97577.31
2022-12-23T15:07:06.121Z,97582.91
2022-12-23T15:09:47.280Z,97586.41
2022-12-23T15:12:18.657Z,97591.53
2022-12-23T15:14:50.885Z,97596.94
2022-12-23T15:17:32.880Z,97595.03
2022-12-23T15:20:18.461Z,97587.34
2022-12-23T15:22:45.794Z,97580.66
2022-12-23T15:25:39.265Z,97606.09
2022-12-23T15:28:06.192Z,97602.72
2022-12-23T15:30:36.456Z,97626.19
2022-12-23T15:33:35.419Z,97622.47
2022-12-23T15:36:39.189Z,97620.41
2022-12-23T15:39:33.461Z,97624.69
2022-12-23T15:42:17.397Z,97636.84
2022-12-23T15:44:47.477Z,97625.31
2022-12-23T15:47:50.733Z,97626.44
2022-12-23T15:51:12.849Z,97615.59
2022-12-23T15:53:58.049Z,97623.88
2022-12-23T16:00:29.332Z,97624.38
2022-12-23T16:03:08.943Z,97619.72
2022-12-23T16:06:08.259Z,97617.94
2022-12-23T16:09:08.308Z,97620.94
2022-12-23T16:15:56.647Z,97613.75
2022-12-23T16:21:49.283Z,97601.63
2022-12-23T16:24:53.964Z,97604.19
2022-12-23T16:33:58.341Z,97610.75
2022-12-23T16:36:31.247Z,97610.91
2022-12-23T16:39:24.183Z,97616.00
2022-12-23T16:41:59.761Z,97626.06
2022-12-23T16:44:35.785Z,97628.47
2022-12-23T16:47:20.028Z,97627.66
2022-12-23T16:50:11.982Z,97624.59
2022-12-23T16:52:45.805Z,97627.78
2022-12-23T16:55:22.572Z,97626.34
2022-12-23T17:02:29.051Z,97626.19
2022-12-23T17:05:14.713Z,97628.00
2022-12-23T17:08:08.768Z,97621.28
2022-12-23T17:10:59.067Z,97614.41
2022-12-23T17:14:15.257Z,97615.41
2022-12-23T17:20:51.931Z,97617.50
2022-12-23T17:23:48.358Z,97607.56
2022-12-23T17:26:25.490Z,97612.69
2022-12-23T17:29:04.488Z,97612.38
2022-12-23T17:31:50.908Z,97612.69
2022-12-23T17:34:39.010Z,97611.75
2022-12-23T17:37:29.013Z,97610.50
2022-12-23T17:43:38.501Z,97617.03
2022-12-23T17:46:20.163Z,97618.44
2022-12-23T17:49:06.358Z,97630.13
2022-12-23T17:51:43.893Z,97626.28
2022-12-23T17:54:47.103Z,97637.16
2022-12-23T18:02:00.542Z,97670.69
2022-12-23T18:04:42.105Z,97645.75
2022-12-23T18:10:13.322Z,97622.78
2022-12-23T18:13:04.835Z,97634.31
2022-12-23T18:15:43.705Z,97674.09
2022-12-23T18:21:53.647Z,97724.09
2022-12-23T18:27:41.741Z,97698.22
2022-12-23T18:33:31.190Z,97682.59
2022-12-23T18:36:38.593Z,97690.56
2022-12-23T18:39:22.724Z,97687.38
2022-12-23T18:43:30.069Z,97687.97
2022-12-23T18:50:30.654Z,97683.00
2022-12-23T18:56:49.348Z,97698.34
2022-12-23T18:59:48.764Z,97699.16
2022-12-23T19:02:24.952Z,97713.84
2022-12-23T19:05:11.379Z,97716.09
2022-12-23T19:08:03.608Z,97719.28
2022-12-23T19:13:04.910Z,97721.03
2022-12-23T19:15:31.859Z,97727.44
2022-12-23T19:17:58.251Z,97740.69
2022-12-23T19:20:24.737Z,97743.88
2022-12-23T19:22:51.085Z,97743.41
2022-12-23T19:25:18.812Z,97755.22
2022-12-23T19:27:45.986Z,97762.75
2022-12-23T19:30:16.321Z,97768.63
2022-12-23T19:32:43.248Z,97761.63
2022-12-23T19:35:14.710Z,97757.13
2022-12-23T19:37:42.079Z,97760.50
2022-12-23T19:40:09.337Z,97783.97
2022-12-23T19:42:39.409Z,97786.38
2022-12-23T19:45:08.742Z,97787.03
2022-12-23T19:47:35.822Z,97777.94
2022-12-23T19:50:02.396Z,97783.69
2022-12-23T19:52:28.789Z,97789.44
2022-12-23T19:54:55.359Z,97788.97
2022-12-23T19:57:21.982Z,97786.41
2022-12-23T19:59:48.438Z,97794.91
2022-12-23T20:02:16.046Z,97795.06
2022-12-23T20:04:43.236Z,97785.13
2022-12-23T20:07:10.333Z,97786.91
2022-12-23T20:09:37.009Z,97775.25
2022-12-23T20:12:03.974Z,97812.75
2022-12-23T20:14:34.075Z,97811.16
2022-12-23T20:17:00.903Z,97812.63
2022-12-23T20:19:27.640Z,97822.69
2022-12-23T20:21:54.075Z,97824.28
2022-12-23T20:24:20.497Z,97820.13
2022-12-23T20:26:47.488Z,97819.34
2022-12-23T20:29:14.355Z,97820.63
2022-12-23T20:31:41.390Z,97825.09
2022-12-23T20:34:10.900Z,97824.44
2022-12-23T20:36:38.207Z,97848.41
2022-12-23T20:39:05.084Z,97844.75
2022-12-23T20:41:32.917Z,97873.84
2022-12-23T20:46:46.473Z,97888.84
2022-12-23T20:49:13.076Z,97908.19
2022-12-23T20:51:39.453Z,97900.50
2022-12-23T20:54:05.865Z,97899.41
2022-12-23T20:56:32.317Z,97894.78
2022-12-23T20:59:00.134Z,97898.78
2022-12-23T21:01:33.321Z,97898.28
2022-12-23T21:04:02.350Z,97913.31
2022-12-23T21:06:30.814Z,97919.09
2022-12-23T21:08:59.428Z,97916.03
2022-12-23T21:11:30.675Z,97925.28
2022-12-23T21:14:01.206Z,97933.91
2022-12-23T21:16:33.413Z,97931.19
2022-12-23T21:18:59.977Z,97933.44
2022-12-23T21:21:27.780Z,97936.63
2022-12-23T21:23:55.903Z,97945.91
2022-12-23T21:26:24.689Z,97942.25
2022-12-23T21:28:52.468Z,97940.13
2022-12-23T21:31:21.678Z,97934.56
2022-12-23T21:33:50.100Z,97946.81
2022-12-23T21:36:20.494Z,97935.50
2022-12-23T21:38:48.717Z,97920.78
2022-12-23T21:41:20.131Z,97921.25
2022-12-23T21:43:46.825Z,97937.41
2022-12-23T21:46:16.077Z,97944.91
2022-12-23T21:48:42.840Z,97956.88
2022-12-23T21:51:13.517Z,97953.84
2022-12-23T21:53:40.840Z,97965.50
2022-12-23T21:56:13.292Z,97970.47
2022-12-23T21:58:40.545Z,97985.16
2022-12-23T22:01:13.388Z,97984.16
2022-12-23T22:03:40.227Z,97984.78
2022-12-23T22:06:15.379Z,97989.09
2022-12-23T22:08:42.849Z,97996.44
2022-12-23T22:11:18.393Z,98007.63
2022-12-23T22:13:45.337Z,97995.00
2022-12-23T22:16:14.072Z,98008.47
2022-12-23T22:18:41.005Z,98011.69
2022-12-23T22:21:09.604Z,97999.22
2022-12-23T22:23:37.186Z,98003.53
2022-12-23T22:26:04.686Z,98002.59
2022-12-23T22:28:32.619Z,98003.22
2022-12-23T22:31:04.122Z,98008.47
2022-12-23T22:33:31.615Z,98005.88
2022-12-23T22:35:58.247Z,97991.63
2022-12-23T22:38:26.216Z,98007.75
2022-12-23T22:40:53.389Z,98001.19
2022-12-23T22:43:20.587Z,98010.56
2022-12-23T22:45:47.281Z,98015.94
2022-12-23T22:48:13.819Z,98022.63
2022-12-23T22:50:40.235Z,98033.94
2022-12-23T22:53:06.827Z,98027.19
2022-12-23T22:55:33.273Z,98030.53
2022-12-23T22:57:59.660Z,98034.66
2022-12-23T23:00:26.106Z,98034.16
2022-12-23T23:02:52.541Z,98030.19
2022-12-23T23:05:19.703Z,98031.41
2022-12-23T23:07:46.148Z,98026.78
2022-12-23T23:10:12.615Z,98036.72
2022-12-23T23:12:39.027Z,98029.38
2022-12-23T23:15:05.923Z,98028.25
2022-12-23T23:17:32.352Z,98019.31
2022-12-23T23:19:58.857Z,98036.50
2022-12-23T23:22:25.447Z,98028.69
2022-12-23T23:24:52.508Z,98026.59
2022-12-23T23:27:19.501Z,98033.00
2022-12-23T23:29:45.976Z,98024.13
2022-12-23T23:32:12.576Z,98031.22
2022-12-23T23:34:40.524Z,98026.28
2022-12-23T23:37:06.906Z,98044.78
2022-12-23T23:39:33.286Z,98036.94
2022-12-23T23:41:59.673Z,98042.34
2022-12-23T23:44:26.123Z,98055.28
2022-12-23T23:46:52.565Z,98065.94
2022-12-23T23:49:20.703Z,98056.50
2022-12-23T23:51:47.172Z,98068.28
2022-12-23T23:54:13.556Z,98066.31
2022-12-23T23:56:40.069Z,98065.00
2022-12-23T23:59:07.942Z,98075.19
